createdAt,value
2022-12-20T00:02:22.225Z,-6.97
2022-12-20T00:04:52.965Z,-6.80
2022-12-20T00:07:26.225Z,-6.67
2022-12-20T00:09:56.798Z,-6.54
2022-12-20T00:12:27.748Z,-6.44
2022-12-20T00:14:58.365Z,-6.37
2022-12-20T00:17:30.796Z,-6.26
2022-12-20T00:20:01.420Z,-6.21
2022-12-20T00:22:34.920Z,-6.10
2022-12-20T00:25:05.411Z,-6.06
2022-12-20T00:27:36.288Z,-6.01
2022-12-20T00:30:07.725Z,-5.98
2022-12-20T00:32:38.265Z,-6.01
2022-12-20T00:35:10.493Z,-6.01
2022-12-20T00:37:46.931Z,-6.08
2022-12-20T00:40:18.073Z,-6.27
2022-12-20T00:42:48.627Z,-6.50
2022-12-20T00:45:19.414Z,-6.57
2022-12-20T00:47:49.963Z,-6.59
2022-12-20T00:50:20.660Z,-6.53
2022-12-20T00:52:53.862Z,-6.73
2022-12-20T00:55:24.687Z,-7.24
2022-12-20T00:57:55.365Z,-7.79
2022-12-20T01:00:26.193Z,-8.31
2022-12-20T01:02:56.793Z,-8.68
2022-12-20T01:05:27.480Z,-8.91
2022-12-20T01:08:00.737Z,-9.03
2022-12-20T01:10:31.453Z,-9.10
2022-12-20T01:13:03.029Z,-9.15
2022-12-20T01:15:33.722Z,-9.11
2022-12-20T01:18:09.040Z,-9.07
2022-12-20T01:20:39.632Z,-9.02
2022-12-20T01:23:12.767Z,-8.94
2022-12-20T01:25:43.400Z,-8.85
2022-12-20T01:28:13.944Z,-8.81
2022-12-20T01:30:45.624Z,-8.81
2022-12-20T01:33:16.545Z,-8.87
2022-12-20T01:35:58.491Z,-8.97
2022-12-20T01:38:32.512Z,-9.08
2022-12-20T01:41:03.331Z,-9.19
2022-12-20T01:43:50.496Z,-9.29
2022-12-20T01:46:22.388Z,-9.39
2022-12-20T01:48:57.091Z,-9.38
2022-12-20T01:51:29.023Z,-9.36
2022-12-20T01:54:08.089Z,-9.36
2022-12-20T01:56:42.316Z,-9.18
2022-12-20T01:59:14.275Z,-9.09
2022-12-20T02:01:46.424Z,-9.00
2022-12-20T02:04:17.268Z,-8.91
2022-12-20T02:06:47.973Z,-8.89
2022-12-20T02:09:21.408Z,-8.93
2022-12-20T02:12:08.237Z,-9.00
2022-12-20T02:14:56.048Z,-9.09
2022-12-20T02:17:31.686Z,-8.81
2022-12-20T02:20:41.575Z,-8.61
2022-12-20T02:23:30.404Z,-8.41
2022-12-20T02:26:21.914Z,-8.73
2022-12-20T02:29:10.883Z,-9.00
2022-12-20T02:31:51.356Z,-9.21
2022-12-20T02:34:25.239Z,-9.35
2022-12-20T02:36:57.041Z,-9.47
2022-12-20T02:39:30.442Z,-9.55
2022-12-20T02:42:04.723Z,-9.55
2022-12-20T02:44:50.302Z,-9.50
2022-12-20T02:47:28.512Z,-9.38
2022-12-20T02:50:00.271Z,-9.27
2022-12-20T02:52:33.068Z,-9.20
2022-12-20T02:55:04.865Z,-9.20
2022-12-20T02:57:46.128Z,-9.22
2022-12-20T03:00:19.811Z,-9.09
2022-12-20T03:03:06.254Z,-8.91
2022-12-20T03:05:39.441Z,-8.60
2022-12-20T03:08:11.776Z,-8.77
2022-12-20T03:10:42.506Z,-9.05
2022-12-20T03:13:13.533Z,-9.34
2022-12-20T03:15:51.781Z,-9.52
2022-12-20T03:18:25.642Z,-9.67
2022-12-20T03:20:56.500Z,-9.79
2022-12-20T03:23:27.580Z,-9.88
2022-12-20T03:25:58.523Z,-9.89
2022-12-20T03:28:35.806Z,-9.85
2022-12-20T03:31:06.962Z,-9.76
2022-12-20T03:33:48.861Z,-9.65
2022-12-20T03:36:23.700Z,-9.52
2022-12-20T03:38:59.367Z,-9.43
2022-12-20T03:41:32.355Z,-9.36
2022-12-20T03:44:03.513Z,-9.26
2022-12-20T03:46:34.370Z,-9.07
2022-12-20T03:49:09.422Z,-8.90
2022-12-20T03:51:47.705Z,-8.77
2022-12-20T03:54:18.396Z,-8.60
2022-12-20T03:57:06.307Z,-8.47
2022-12-20T03:59:37.463Z,-8.34
2022-12-20T04:02:09.863Z,-8.24
2022-12-20T04:04:43.057Z,-8.14
2022-12-20T04:07:14.153Z,-8.03
2022-12-20T04:09:48.560Z,-7.95
2022-12-20T04:12:20.048Z,-7.87
2022-12-20T04:14:50.657Z,-7.79
2022-12-20T04:17:21.360Z,-7.73
2022-12-20T04:19:55.088Z,-7.69
2022-12-20T04:22:26.731Z,-7.64
2022-12-20T04:25:07.025Z,-7.61
2022-12-20T04:27:43.697Z,-7.56
2022-12-20T04:30:15.804Z,-7.54
2022-12-20T04:32:46.917Z,-7.50
2022-12-20T04:35:21.423Z,-7.51
2022-12-20T04:37:52.094Z,-7.50
2022-12-20T04:40:22.682Z,-7.49
2022-12-20T04:42:57.934Z,-7.49
2022-12-20T04:45:28.560Z,-7.55
2022-12-20T04:48:14.691Z,-7.51
2022-12-20T04:50:55.562Z,-7.50
2022-12-20T04:53:39.847Z,-7.51
2022-12-20T04:56:11.313Z,-7.50
2022-12-20T04:58:42.012Z,-7.48
2022-12-20T05:01:14.128Z,-7.49
2022-12-20T05:03:52.410Z,-7.49
2022-12-20T05:06:26.203Z,-7.49
2022-12-20T05:08:56.842Z,-7.49
2022-12-20T05:11:28.389Z,-7.51
2022-12-20T05:13:59.729Z,-7.52
2022-12-20T05:16:30.604Z,-7.57
2022-12-20T05:19:03.544Z,-7.58
2022-12-20T05:21:54.278Z,-7.61
2022-12-20T05:24:37.706Z,-7.63
2022-12-20T05:27:19.323Z,-7.65
2022-12-20T05:29:50.230Z,-7.64
2022-12-20T05:32:21.044Z,-7.65
2022-12-20T05:34:51.770Z,-7.64
2022-12-20T05:37:26.689Z,-7.64
2022-12-20T05:39:59.874Z,-7.63
2022-12-20T05:42:30.561Z,-7.64
2022-12-20T05:45:01.537Z,-7.63
2022-12-20T05:47:35.194Z,-7.61
2022-12-20T05:50:18.506Z,-7.60
2022-12-20T05:53:12.242Z,-7.57
2022-12-20T05:55:52.174Z,-7.54
2022-12-20T05:58:23.928Z,-7.52
2022-12-20T06:01:00.235Z,-7.49
2022-12-20T06:03:31.401Z,-7.46
2022-12-20T06:06:06.061Z,-7.42
2022-12-20T06:08:41.969Z,-7.40
2022-12-20T06:11:18.136Z,-7.37
2022-12-20T06:13:58.237Z,-7.34
2022-12-20T06:16:29.082Z,-7.31
2022-12-20T06:19:01.049Z,-7.30
2022-12-20T06:21:32.475Z,-7.27
2022-12-20T06:24:07.357Z,-7.26
2022-12-20T06:26:40.800Z,-7.25
2022-12-20T06:29:14.520Z,-7.24
2022-12-20T06:31:50.927Z,-7.17
2022-12-20T06:34:21.952Z,-7.16
2022-12-20T06:36:52.640Z,-7.14
2022-12-20T06:39:30.492Z,-7.14
2022-12-20T06:42:07.389Z,-7.10
2022-12-20T06:44:39.495Z,-7.05
2022-12-20T06:47:10.627Z,-7.01
2022-12-20T06:49:42.777Z,-7.08
2022-12-20T06:52:21.977Z,-6.96
2022-12-20T06:54:57.628Z,-6.94
2022-12-20T06:57:28.331Z,-6.91
2022-12-20T06:59:59.886Z,-6.87
2022-12-20T07:02:30.848Z,-6.81
2022-12-20T07:05:01.579Z,-6.76
2022-12-20T07:07:38.567Z,-6.68
2022-12-20T07:10:16.393Z,-6.55
2022-12-20T07:12:48.428Z,-6.43
2022-12-20T07:15:19.476Z,-6.28
2022-12-20T07:17:50.079Z,-6.13
2022-12-20T07:20:21.308Z,-6.01
2022-12-20T07:22:52.202Z,-5.86
2022-12-20T07:25:25.815Z,-5.73
2022-12-20T07:27:56.953Z,-5.60
2022-12-20T07:30:27.537Z,-5.45
2022-12-20T07:32:58.843Z,-5.28
2022-12-20T07:35:29.777Z,-5.13
2022-12-20T07:38:00.963Z,-4.94
2022-12-20T07:40:34.112Z,-4.74
2022-12-20T07:43:04.776Z,-4.52
2022-12-20T07:45:35.367Z,-4.29
2022-12-20T07:48:11.306Z,-4.08
2022-12-20T07:50:45.186Z,-3.85
2022-12-20T07:53:15.755Z,-3.63
2022-12-20T07:55:49.263Z,-3.41
2022-12-20T07:58:22.000Z,-3.23
2022-12-20T08:00:53.456Z,-3.09
2022-12-20T08:03:27.027Z,-2.94
2022-12-20T08:06:04.078Z,-2.80
2022-12-20T08:08:37.511Z,-2.69
2022-12-20T08:11:12.918Z,-2.58
2022-12-20T08:13:46.588Z,-2.47
2022-12-20T08:16:17.691Z,-2.38
2022-12-20T08:18:48.351Z,-2.28
2022-12-20T08:21:19.378Z,-2.25
2022-12-20T08:23:50.036Z,-2.22
2022-12-20T08:26:23.202Z,-2.19
2022-12-20T08:28:53.824Z,-2.22
2022-12-20T08:31:24.518Z,-2.18
2022-12-20T08:33:58.100Z,-2.10
2022-12-20T08:36:28.691Z,-1.95
2022-12-20T08:38:59.316Z,-1.81
2022-12-20T08:41:32.520Z,-1.69
2022-12-20T08:44:03.236Z,-1.56
2022-12-20T08:46:33.918Z,-1.43
2022-12-20T08:49:04.666Z,-1.31
2022-12-20T08:51:35.254Z,-1.21
2022-12-20T08:54:06.020Z,-1.11
2022-12-20T08:56:39.204Z,-1.04
2022-12-20T08:59:09.880Z,-0.99
2022-12-20T09:01:40.601Z,-0.93
2022-12-20T09:04:14.967Z,-0.88
2022-12-20T09:06:45.524Z,-0.87
2022-12-20T09:09:16.683Z,-0.84
2022-12-20T09:11:49.830Z,-0.81
2022-12-20T09:14:22.344Z,-0.77
2022-12-20T09:16:53.021Z,-0.71
2022-12-20T09:19:23.618Z,-0.66
2022-12-20T09:21:55.629Z,-0.59
2022-12-20T09:24:26.251Z,-0.51
2022-12-20T09:27:00.082Z,-0.45
2022-12-20T09:29:35.530Z,-0.42
2022-12-20T09:32:06.250Z,-0.45
2022-12-20T09:34:36.817Z,-0.49
2022-12-20T09:37:07.363Z,-0.53
2022-12-20T09:39:38.138Z,-0.55
2022-12-20T09:42:13.441Z,-0.56
2022-12-20T09:44:45.765Z,-0.57
2022-12-20T09:47:21.078Z,-0.58
2022-12-20T09:49:57.529Z,-0.61
2022-12-20T09:52:50.720Z,-0.64
2022-12-20T09:55:31.658Z,-0.74
2022-12-20T09:58:22.294Z,-0.67
2022-12-20T10:00:54.796Z,-0.70
2022-12-20T10:03:29.240Z,-0.70
2022-12-20T10:06:03.899Z,-0.72
2022-12-20T10:08:47.237Z,-0.73
2022-12-20T10:11:40.711Z,-0.74
2022-12-20T10:14:21.182Z,-0.75
2022-12-20T10:16:57.118Z,-0.76
2022-12-20T10:19:45.532Z,-0.81
2022-12-20T10:22:22.685Z,-0.84
2022-12-20T10:25:02.070Z,-0.86
2022-12-20T10:27:38.090Z,-0.86
2022-12-20T10:30:16.216Z,-0.85
2022-12-20T10:32:49.105Z,-0.77
2022-12-20T10:35:29.252Z,-0.69
2022-12-20T10:38:10.252Z,-0.58
2022-12-20T10:43:45.828Z,-0.27
2022-12-20T10:46:19.895Z,-0.12
2022-12-20T10:48:52.047Z,0.00
2022-12-20T10:51:24.840Z,0.12
2022-12-20T10:54:01.453Z,0.22
2022-12-20T10:56:34.284Z,0.32
2022-12-20T10:59:08.627Z,0.39
2022-12-20T11:01:47.319Z,0.47
2022-12-20T11:04:30.199Z,0.57
2022-12-20T11:07:02.364Z,0.62
2022-12-20T11:09:35.344Z,0.62
2022-12-20T11:12:09.217Z,0.69
2022-12-20T11:14:42.057Z,0.75
2022-12-20T11:17:30.085Z,0.81
2022-12-20T11:20:33.605Z,0.91
2022-12-20T11:23:18.512Z,0.96
2022-12-20T11:26:04.291Z,0.96
2022-12-20T11:28:48.792Z,0.94
2022-12-20T11:31:28.700Z,0.95
2022-12-20T11:34:21.786Z,0.95
2022-12-20T11:37:13.726Z,0.98
2022-12-20T11:39:51.798Z,1.01
2022-12-20T11:42:35.186Z,1.02
2022-12-20T11:45:13.875Z,1.06
2022-12-20T11:48:05.627Z,1.06
2022-12-20T11:50:52.661Z,1.09
2022-12-20T11:53:29.796Z,1.12
2022-12-20T11:56:05.513Z,1.13
2022-12-20T11:58:49.317Z,1.12
2022-12-20T12:01:22.674Z,1.11
2022-12-20T12:04:04.754Z,1.10
2022-12-20T12:06:40.811Z,1.11
2022-12-20T12:09:25.969Z,1.13
2022-12-20T12:12:08.486Z,1.14
2022-12-20T12:14:52.148Z,1.15
2022-12-20T12:17:31.054Z,1.14
2022-12-20T12:20:21.200Z,1.11
2022-12-20T12:23:01.143Z,1.10
2022-12-20T12:25:31.790Z,1.09
2022-12-20T12:28:02.484Z,1.08
2022-12-20T12:30:42.615Z,1.03
2022-12-20T12:33:24.347Z,0.98
2022-12-20T12:36:12.907Z,0.91
2022-12-20T12:39:19.107Z,0.85
2022-12-20T12:42:23.342Z,0.79
2022-12-20T12:44:57.951Z,0.75
2022-12-20T12:47:42.299Z,0.75
2022-12-20T12:50:24.734Z,0.74
2022-12-20T12:52:57.523Z,0.69
2022-12-20T12:55:46.264Z,0.62
2022-12-20T12:58:34.626Z,0.55
2022-12-20T13:01:09.214Z,0.52
2022-12-20T13:03:46.343Z,0.48
2022-12-20T13:06:47.586Z,0.42
2022-12-20T13:09:39.011Z,0.38
2022-12-20T13:12:51.776Z,0.30
2022-12-20T13:15:54.531Z,0.22
2022-12-20T13:18:37.214Z,0.13
2022-12-20T13:21:35.814Z,0.06
2022-12-20T13:24:42.851Z,-0.09
2022-12-20T13:27:41.769Z,-0.05
2022-12-20T13:30:28.986Z,-0.10
2022-12-20T13:33:16.156Z,-0.11
2022-12-20T13:36:05.435Z,-0.14
2022-12-20T13:39:07.596Z,-0.17
2022-12-20T13:41:44.605Z,-0.16
2022-12-20T13:44:43.226Z,-0.20
2022-12-20T13:47:33.078Z,-0.21
2022-12-20T13:50:06.011Z,-0.23
2022-12-20T13:52:46.312Z,-0.23
2022-12-20T13:55:26.261Z,-0.24
2022-12-20T13:57:57.623Z,-0.29
2022-12-20T14:00:29.920Z,-0.37
2022-12-20T14:03:01.010Z,-0.38
2022-12-20T14:05:36.581Z,-0.44
2022-12-20T14:08:12.611Z,-0.47
2022-12-20T14:10:43.136Z,-0.51
2022-12-20T14:13:25.335Z,-0.53
2022-12-20T14:15:56.788Z,-0.55
2022-12-20T14:18:29.138Z,-0.58
2022-12-20T14:21:02.819Z,-0.61
2022-12-20T14:23:41.224Z,-0.60
2022-12-20T14:26:16.671Z,-0.63
2022-12-20T14:28:49.055Z,-0.65
2022-12-20T14:31:31.349Z,-0.66
2022-12-20T14:34:07.588Z,-0.68
2022-12-20T14:36:38.343Z,-0.71
2022-12-20T14:39:28.893Z,-0.74
2022-12-20T14:42:00.825Z,-0.79
2022-12-20T14:44:33.898Z,-0.81
2022-12-20T14:47:08.587Z,-0.84
2022-12-20T14:49:41.530Z,-0.90
2022-12-20T14:52:18.457Z,-0.92
2022-12-20T14:55:10.035Z,-0.96
2022-12-20T14:57:49.807Z,-0.97
2022-12-20T15:00:27.838Z,-0.97
2022-12-20T15:03:05.002Z,-1.00
2022-12-20T15:05:45.779Z,-1.01
2022-12-20T15:08:18.571Z,-1.03
2022-12-20T15:11:04.091Z,-1.07
2022-12-20T15:13:36.455Z,-1.10
2022-12-20T15:16:09.294Z,-1.11
2022-12-20T15:18:41.023Z,-1.14
2022-12-20T15:21:16.998Z,-1.18
2022-12-20T15:23:51.767Z,-1.20
2022-12-20T15:26:26.546Z,-1.31
2022-12-20T15:28:57.809Z,-1.31
2022-12-20T15:31:33.817Z,-1.36
2022-12-20T15:34:07.121Z,-1.43
2022-12-20T15:36:38.645Z,-1.49
2022-12-20T15:39:13.690Z,-1.53
2022-12-20T15:41:50.480Z,-1.67
2022-12-20T15:44:23.786Z,-1.60
2022-12-20T15:46:55.074Z,-1.62
2022-12-20T15:49:27.387Z,-1.63
2022-12-20T15:51:58.556Z,-1.65
2022-12-20T15:54:31.862Z,-1.64
2022-12-20T15:57:07.880Z,-1.67
2022-12-20T16:02:31.744Z,-1.69
2022-12-20T16:05:02.364Z,-1.70
2022-12-20T16:07:33.779Z,-1.71
2022-12-20T16:10:04.413Z,-1.73
2022-12-20T16:12:39.613Z,-1.74
2022-12-20T16:15:22.462Z,-1.76
2022-12-20T16:17:53.177Z,-1.80
2022-12-20T16:20:23.776Z,-1.82
2022-12-20T16:22:54.403Z,-1.85
2022-12-20T16:25:30.354Z,-1.89
2022-12-20T16:28:03.927Z,-1.92
2022-12-20T16:30:35.112Z,-1.95
2022-12-20T16:33:06.818Z,-2.00
2022-12-20T16:35:39.390Z,-2.03
2022-12-20T16:38:10.021Z,-2.05
2022-12-20T16:40:40.621Z,-2.13
2022-12-20T16:43:18.555Z,-2.16
2022-12-20T16:45:49.330Z,-2.19
2022-12-20T16:48:20.275Z,-2.25
2022-12-20T16:50:51.071Z,-2.28
2022-12-20T16:53:21.826Z,-2.31
2022-12-20T16:55:52.488Z,-2.34
2022-12-20T16:58:45.011Z,-2.38
2022-12-20T17:01:19.437Z,-2.43
2022-12-20T17:03:50.549Z,-2.45
2022-12-20T17:06:22.020Z,-2.49
2022-12-20T17:08:52.930Z,-2.54
2022-12-20T17:11:25.607Z,-2.57
2022-12-20T17:13:59.965Z,-2.61
2022-12-20T17:16:31.070Z,-2.68
2022-12-20T17:19:01.919Z,-2.72
2022-12-20T17:24:25.285Z,-2.84
2022-12-20T17:26:56.218Z,-2.88
2022-12-20T17:29:29.617Z,-2.90
2022-12-20T17:32:00.700Z,-2.96
2022-12-20T17:34:33.433Z,-2.96
2022-12-20T17:37:04.027Z,-2.98
2022-12-20T17:39:34.898Z,-3.00
2022-12-20T17:42:05.430Z,-3.01
2022-12-20T17:44:38.784Z,-3.03
2022-12-20T17:47:09.551Z,-3.03
2022-12-20T17:49:40.375Z,-3.06
2022-12-20T17:52:16.318Z,-3.09
2022-12-20T17:54:46.812Z,-3.09
2022-12-20T17:57:18.366Z,-3.11
2022-12-20T17:59:51.552Z,-3.15
2022-12-20T18:02:27.669Z,-3.16
2022-12-20T18:04:58.542Z,-3.21
2022-12-20T18:07:29.155Z,-3.21
2022-12-20T18:09:59.690Z,-3.26
2022-12-20T18:12:35.638Z,-3.27
2022-12-20T18:15:12.034Z,-3.32
2022-12-20T18:17:43.508Z,-3.34
2022-12-20T18:20:15.417Z,-3.38
2022-12-20T18:22:45.951Z,-3.41
2022-12-20T18:25:18.446Z,-3.45
2022-12-20T18:27:49.104Z,-3.48
2022-12-20T18:30:22.580Z,-3.52
2022-12-20T18:32:53.243Z,-3.53
2022-12-20T18:35:23.811Z,-3.58
2022-12-20T18:37:54.343Z,-3.61
2022-12-20T18:40:26.047Z,-3.62
2022-12-20T18:42:59.695Z,-3.65
2022-12-20T18:45:37.570Z,-3.68
2022-12-20T18:48:08.258Z,-3.73
2022-12-20T18:50:39.355Z,-3.75
2022-12-20T18:53:10.164Z,-3.77
2022-12-20T18:55:41.122Z,-3.81
2022-12-20T18:58:11.797Z,-3.83
2022-12-20T19:00:48.075Z,-3.85
2022-12-20T19:03:19.464Z,-3.89
2022-12-20T19:05:55.462Z,-3.92
2022-12-20T19:08:26.872Z,-3.97
2022-12-20T19:11:00.988Z,-4.03
2022-12-20T19:13:31.728Z,-4.08
2022-12-20T19:16:10.064Z,-4.10
2022-12-20T19:18:41.153Z,-4.14
2022-12-20T19:21:13.457Z,-4.18
2022-12-20T19:23:46.054Z,-4.22
2022-12-20T19:26:18.389Z,-4.26
2022-12-20T19:28:49.919Z,-4.30
2022-12-20T19:31:25.067Z,-4.31
2022-12-20T19:33:57.587Z,-4.36
2022-12-20T19:36:30.488Z,-4.37
2022-12-20T19:39:02.746Z,-4.39
2022-12-20T19:41:35.755Z,-4.39
2022-12-20T19:44:07.570Z,-4.41
2022-12-20T19:46:41.035Z,-4.41
2022-12-20T19:49:11.622Z,-4.43
2022-12-20T19:51:42.352Z,-4.46
2022-12-20T19:54:13.063Z,-4.46
2022-12-20T19:56:43.675Z,-4.48
2022-12-20T19:59:14.459Z,-4.49
2022-12-20T20:01:47.768Z,-4.51
2022-12-20T20:04:19.113Z,-4.53
2022-12-20T20:06:49.706Z,-4.55
2022-12-20T20:09:20.361Z,-4.58
2022-12-20T20:11:51.013Z,-4.60
2022-12-20T20:14:21.835Z,-4.61
2022-12-20T20:16:55.223Z,-4.64
2022-12-20T20:19:25.777Z,-4.73
2022-12-20T20:21:56.396Z,-4.70
2022-12-20T20:24:26.972Z,-4.73
2022-12-20T20:26:57.495Z,-4.76
2022-12-20T20:29:28.074Z,-4.77
2022-12-20T20:32:01.285Z,-4.76
2022-12-20T20:34:32.218Z,-4.77
2022-12-20T20:37:03.031Z,-4.77
2022-12-20T20:39:34.299Z,-4.79
2022-12-20T20:42:04.800Z,-4.83
2022-12-20T20:44:35.309Z,-4.89
2022-12-20T20:47:10.474Z,-4.95
2022-12-20T20:49:41.043Z,-5.03
2022-12-20T20:52:11.969Z,-5.08
2022-12-20T20:54:42.738Z,-5.12
2022-12-20T20:57:13.559Z,-5.13
2022-12-20T20:59:44.702Z,-5.16
2022-12-20T21:02:21.188Z,-5.20
2022-12-20T21:05:35.289Z,-5.21
2022-12-20T21:07:42.346Z,-5.39
2022-12-20T21:10:13.618Z,-5.22
2022-12-20T21:12:44.318Z,-5.22
2022-12-20T21:15:23.956Z,-5.21
2022-12-20T21:17:57.661Z,-5.21
2022-12-20T21:20:28.136Z,-5.20
2022-12-20T21:22:58.740Z,-5.19
2022-12-20T21:25:29.279Z,-5.18
2022-12-20T21:28:00.185Z,-5.19
2022-12-20T21:30:30.815Z,-5.21
2022-12-20T21:33:04.033Z,-5.22
2022-12-20T21:35:34.614Z,-5.25
2022-12-20T21:38:05.316Z,-5.27
2022-12-20T21:40:35.848Z,-5.29
2022-12-20T21:43:06.821Z,-5.30
2022-12-20T21:45:37.415Z,-5.31
2022-12-20T21:48:10.774Z,-5.28
2022-12-20T21:50:41.310Z,-5.28
2022-12-20T21:53:17.570Z,-5.27
2022-12-20T21:55:50.033Z,-5.28
2022-12-20T21:58:20.710Z,-5.28
2022-12-20T22:00:54.753Z,-5.30
2022-12-20T22:03:29.466Z,-5.33
2022-12-20T22:06:00.946Z,-5.35
2022-12-20T22:08:32.367Z,-5.38
2022-12-20T22:11:03.561Z,-5.39
2022-12-20T22:13:41.037Z,-5.43
2022-12-20T22:16:13.764Z,-5.44
2022-12-20T22:18:48.127Z,-5.59
2022-12-20T22:21:19.923Z,-5.46
2022-12-20T22:23:51.241Z,-5.49
2022-12-20T22:26:23.866Z,-5.50
2022-12-20T22:28:56.847Z,-5.78
2022-12-20T22:31:28.083Z,-6.20
2022-12-20T22:34:02.170Z,-6.81
2022-12-20T22:36:32.970Z,-7.33
2022-12-20T22:39:03.665Z,-7.78
2022-12-20T22:41:35.646Z,-8.21
2022-12-20T22:44:06.528Z,-8.59
2022-12-20T22:46:36.948Z,-8.90
2022-12-20T22:49:10.288Z,-9.16
2022-12-20T22:51:40.961Z,-9.31
2022-12-20T22:54:11.582Z,-9.39
2022-12-20T22:56:42.059Z,-9.42
2022-12-20T22:59:12.621Z,-9.46
2022-12-20T23:01:43.228Z,-9.49
2022-12-20T23:04:17.233Z,-9.52
2022-12-20T23:06:47.822Z,-9.55
2022-12-20T23:09:18.396Z,-9.64
2022-12-20T23:12:01.246Z,-9.62
2022-12-20T23:14:44.240Z,-9.64
2022-12-20T23:17:14.855Z,-9.35
2022-12-20T23:20:00.491Z,-9.10
2022-12-20T23:22:44.521Z,-8.80
2022-12-20T23:25:17.192Z,-8.54
2022-12-20T23:27:49.968Z,-8.30
2022-12-20T23:30:22.202Z,-8.07
2022-12-20T23:32:56.402Z,-7.88
2022-12-20T23:35:29.700Z,-7.70
2022-12-20T23:38:00.337Z,-7.52
2022-12-20T23:40:30.945Z,-7.35
2022-12-20T23:43:01.434Z,-7.36
2022-12-20T23:45:32.281Z,-7.38
2022-12-20T23:48:02.856Z,-7.45
2022-12-20T23:50:36.567Z,-7.47
2022-12-20T23:53:07.311Z,-7.60
2022-12-20T23:55:38.172Z,-7.83
2022-12-20T23:58:08.761Z,-7.86
